Fort Myers, Florida
Current Conditions -  °F | °C
As of 10:53 AM on Thursday 27 Nov 2014 (Local Time) from KFMY Reporting Station
Clear Clear  
Wind Chill: 69°   Ceiling: Unl
Heat Index: 69°   Visibility: 10mi
Dew Point: 48°   Wind: 12mph
Humidity: 47%   Direction: 360°N
Pressure: 30.28"   Gusts: NA
Location:  26.64°N, 81.87°W
Report Text: KFMY 271553Z 36010KT 10SM CLR 21/09 A3028 RMK AO2 SLP254 T02060089
Loading
Personal Weather Stations






























Interactive Weather Map New forecast layout! Learn more

10-Day Weather Forecast

Advertisements
Track Severe Weather on mobile